createdAt,value
2022-10-17T00:01:19.798Z,10.73
2022-10-17T00:04:06.563Z,10.67
2022-10-17T00:06:46.649Z,10.61
2022-10-17T00:09:33.529Z,10.57
2022-10-17T00:12:13.666Z,10.50
2022-10-17T00:15:00.582Z,10.49
2022-10-17T00:17:42.067Z,10.51
2022-10-17T00:20:28.515Z,10.56
2022-10-17T00:23:08.640Z,10.59
2022-10-17T00:26:04.535Z,10.68
2022-10-17T00:28:56.679Z,10.74
2022-10-17T00:31:36.521Z,10.85
2022-10-17T00:34:23.532Z,10.91
2022-10-17T00:37:03.653Z,10.99
2022-10-17T00:39:50.522Z,11.05
2022-10-17T00:42:30.879Z,11.10
2022-10-17T00:45:38.521Z,11.14
2022-10-17T00:48:22.573Z,11.16
2022-10-17T00:51:10.467Z,11.07
2022-10-17T00:53:51.896Z,10.99
2022-10-17T00:56:39.488Z,10.97
2022-10-17T00:59:28.499Z,10.99
2022-10-17T01:02:11.764Z,10.89
2022-10-17T01:05:03.509Z,10.90
2022-10-17T01:07:44.909Z,10.84
2022-10-17T01:10:32.499Z,10.81
2022-10-17T01:13:31.448Z,10.83
2022-10-17T01:16:31.496Z,10.85
2022-10-17T01:19:48.929Z,10.86
2022-10-17T01:22:55.458Z,10.83
2022-10-17T01:26:03.537Z,10.82
2022-10-17T01:29:19.468Z,10.84
2022-10-17T01:32:15.494Z,10.79
2022-10-17T01:35:00.364Z,10.78
2022-10-17T01:38:19.421Z,10.77
2022-10-17T01:40:59.731Z,10.72
2022-10-17T01:43:54.429Z,10.71
2022-10-17T01:46:44.433Z,10.64
2022-10-17T01:49:37.435Z,10.54
2022-10-17T01:52:35.422Z,10.55
2022-10-17T01:55:30.445Z,10.51
2022-10-17T01:58:20.794Z,10.47
2022-10-17T02:01:10.483Z,10.45
2022-10-17T02:03:59.410Z,10.38
2022-10-17T02:06:43.505Z,10.27
2022-10-17T02:09:32.437Z,10.30
2022-10-17T02:12:41.465Z,10.33
2022-10-17T02:15:57.383Z,10.33
2022-10-17T02:19:05.406Z,10.33
2022-10-17T02:22:21.395Z,10.32
2022-10-17T02:25:46.476Z,10.41
2022-10-17T02:28:45.417Z,10.43
2022-10-17T02:31:38.444Z,10.42
2022-10-17T02:34:34.372Z,10.42
2022-10-17T02:37:25.597Z,10.45
2022-10-17T02:40:08.829Z,10.41
2022-10-17T02:42:58.317Z,10.41
2022-10-17T02:45:47.439Z,10.32
2022-10-17T02:48:49.329Z,10.33
2022-10-17T02:51:59.349Z,10.34
2022-10-17T02:54:56.318Z,10.33
2022-10-17T02:58:00.351Z,10.27
2022-10-17T03:00:46.478Z,10.27
2022-10-17T03:03:35.371Z,10.27
2022-10-17T03:25:40.537Z,10.17
2022-10-17T03:28:21.963Z,10.36
2022-10-17T03:31:08.513Z,10.51
2022-10-17T03:33:56.528Z,10.72
2022-10-17T03:36:36.623Z,10.80
2022-10-17T03:39:23.477Z,10.89
2022-10-17T03:42:10.486Z,10.94
2022-10-17T03:44:50.895Z,10.98
2022-10-17T03:47:37.483Z,11.05
2022-10-17T03:50:24.523Z,11.05
2022-10-17T03:53:13.482Z,11.10
2022-10-17T03:55:54.148Z,11.15
2022-10-17T03:58:40.455Z,11.11
2022-10-17T04:01:29.529Z,11.08
2022-10-17T04:04:16.457Z,11.17
2022-10-17T04:06:56.843Z,11.17
2022-10-17T04:09:43.490Z,11.23
2022-10-17T04:12:25.810Z,11.31
2022-10-17T04:15:12.434Z,11.34
2022-10-17T04:18:01.570Z,11.41
2022-10-17T04:20:42.551Z,11.42
2022-10-17T04:23:29.445Z,11.42
2022-10-17T04:26:20.558Z,11.48
2022-10-17T04:29:07.472Z,11.46
2022-10-17T04:31:50.058Z,11.40
2022-10-17T04:34:56.431Z,11.30
2022-10-17T04:37:43.385Z,11.30
2022-10-17T04:40:32.403Z,11.25
2022-10-17T04:43:12.542Z,11.19
2022-10-17T04:45:59.413Z,11.17
2022-10-17T04:48:46.400Z,11.22
2022-10-17T04:51:33.510Z,11.23
2022-10-17T04:54:33.364Z,11.30
2022-10-17T04:57:22.389Z,11.31
2022-10-17T05:00:18.414Z,11.40
2022-10-17T05:03:05.578Z,11.44
2022-10-17T05:05:53.407Z,11.40
2022-10-17T05:08:34.346Z,11.35
2022-10-17T05:11:40.352Z,11.44
2022-10-17T05:14:27.390Z,11.49
2022-10-17T05:17:14.371Z,11.43
2022-10-17T05:20:01.353Z,11.47
2022-10-17T05:22:42.543Z,11.46
2022-10-17T05:25:29.376Z,11.51
2022-10-17T05:28:16.335Z,11.53
2022-10-17T05:31:09.350Z,11.70
2022-10-17T05:33:56.346Z,11.78
2022-10-17T05:36:38.874Z,11.88
2022-10-17T05:39:27.362Z,12.02
2022-10-17T05:42:07.888Z,12.03
2022-10-17T05:44:54.343Z,11.99
2022-10-17T05:47:34.683Z,12.03
2022-10-17T05:50:23.364Z,12.15
2022-10-17T05:53:11.753Z,12.25
2022-10-17T05:56:13.296Z,12.40
2022-10-17T05:58:57.436Z,12.46
2022-10-17T06:02:20.306Z,12.57
2022-10-17T06:05:07.292Z,12.94
2022-10-17T06:07:58.234Z,13.11
2022-10-17T06:10:42.695Z,14.02
2022-10-17T06:13:30.304Z,14.43
2022-10-17T06:16:23.280Z,15.50
2022-10-17T06:19:10.288Z,17.26
2022-10-17T06:21:50.772Z,18.28
2022-10-17T06:24:39.300Z,18.35
2022-10-17T06:27:20.579Z,19.34
2022-10-17T06:30:07.267Z,19.53
2022-10-17T06:32:47.685Z,20.15
2022-10-17T06:35:35.248Z,19.38
2022-10-17T06:38:22.221Z,20.28
2022-10-17T06:41:20.377Z,21.03
2022-10-17T06:44:07.303Z,21.01
2022-10-17T06:47:08.237Z,20.95
2022-10-17T06:49:56.280Z,21.01
2022-10-17T06:52:42.375Z,21.55
2022-10-17T06:55:47.241Z,21.27
2022-10-17T06:58:49.457Z,21.24
2022-10-17T07:01:43.267Z,22.16
2022-10-17T07:04:33.193Z,21.59
2022-10-17T07:07:13.214Z,22.18
2022-10-17T07:10:00.249Z,22.20
2022-10-17T07:12:42.460Z,23.52
2022-10-17T07:15:29.227Z,22.21
2022-10-17T07:18:09.312Z,22.47
2022-10-17T07:21:01.156Z,22.81
2022-10-17T07:26:29.564Z,23.31
2022-10-17T07:29:17.233Z,25.22
2022-10-17T07:32:12.567Z,26.72
2022-10-17T07:34:59.194Z,26.15
2022-10-17T07:37:39.744Z,25.75
2022-10-17T07:40:28.204Z,25.04
2022-10-17T07:43:08.568Z,25.53
2022-10-17T07:45:55.194Z,25.44
2022-10-17T07:48:36.605Z,25.47
2022-10-17T07:51:25.171Z,24.11
2022-10-17T07:54:06.687Z,25.05
2022-10-17T07:56:57.136Z,25.77
2022-10-17T07:59:38.402Z,25.58
2022-10-17T08:02:37.181Z,26.48
2022-10-17T08:05:17.615Z,25.45
2022-10-17T08:08:04.161Z,25.82
2022-10-17T08:10:51.181Z,25.01
2022-10-17T08:13:31.277Z,23.46
2022-10-17T08:16:20.159Z,23.13
2022-10-17T08:22:01.140Z,23.82
2022-10-17T08:24:42.874Z,25.19
2022-10-17T08:27:31.102Z,24.78
2022-10-17T08:30:18.166Z,26.51
2022-10-17T08:33:05.115Z,26.44
2022-10-17T08:35:45.202Z,25.85
2022-10-17T08:38:35.082Z,24.83
2022-10-17T08:41:34.176Z,24.00
2022-10-17T08:44:24.137Z,23.26
2022-10-17T08:47:08.255Z,22.72
2022-10-17T08:49:59.109Z,23.99
2022-10-17T08:52:48.294Z,24.11
2022-10-17T08:55:47.147Z,24.68
2022-10-17T08:58:41.188Z,24.35
2022-10-17T09:01:34.111Z,26.19
2022-10-17T09:04:42.198Z,27.65
2022-10-17T09:07:48.099Z,27.01
2022-10-17T09:11:10.189Z,25.81
2022-10-17T09:14:20.086Z,24.98
2022-10-17T09:17:31.350Z,23.89
2022-10-17T09:20:24.628Z,22.89
2022-10-17T09:23:25.103Z,22.87
2022-10-17T09:26:19.142Z,21.70
2022-10-17T09:29:01.007Z,21.52
2022-10-17T09:31:59.069Z,21.05
2022-10-17T09:34:39.548Z,21.74
2022-10-17T09:37:31.087Z,21.65
2022-10-17T09:40:21.532Z,21.10
2022-10-17T09:43:08.018Z,21.26
2022-10-17T09:46:11.102Z,21.44
2022-10-17T09:49:28.012Z,21.42
2022-10-17T09:52:24.022Z,20.65
2022-10-17T09:55:24.147Z,20.82
2022-10-17T09:58:14.150Z,21.88
2022-10-17T10:00:55.419Z,22.69
2022-10-17T10:03:42.036Z,23.08
2022-10-17T10:06:27.127Z,24.35
2022-10-17T10:09:29.010Z,22.93
2022-10-17T10:12:32.452Z,24.07
2022-10-17T10:15:44.038Z,24.95
2022-10-17T10:18:33.250Z,23.93
2022-10-17T10:21:37.175Z,24.34
2022-10-17T10:24:20.407Z,23.66
2022-10-17T10:27:10.023Z,22.57
2022-10-17T10:30:03.986Z,22.84
2022-10-17T10:32:53.996Z,23.06
2022-10-17T10:35:43.149Z,22.74
2022-10-17T10:38:31.020Z,22.99
2022-10-17T10:41:14.142Z,24.17
2022-10-17T10:44:03.050Z,22.97
2022-10-17T10:46:50.006Z,23.59
2022-10-17T10:49:32.375Z,21.79
2022-10-17T10:52:22.086Z,21.88
2022-10-17T10:55:17.813Z,21.75
2022-10-17T10:58:09.954Z,20.69
2022-10-17T11:00:58.143Z,22.34
2022-10-17T11:03:50.195Z,26.22
2022-10-17T11:06:43.191Z,26.59
2022-10-17T11:09:51.188Z,27.76
2022-10-17T11:15:53.946Z,23.81
2022-10-17T11:18:51.174Z,25.57
2022-10-17T11:21:43.952Z,25.68
2022-10-17T11:24:34.949Z,26.76
2022-10-17T11:27:16.496Z,26.03
2022-10-17T11:30:03.991Z,26.30
2022-10-17T11:33:01.904Z,25.71
2022-10-17T11:35:53.954Z,25.38
2022-10-17T11:38:52.165Z,25.72
2022-10-17T11:41:49.933Z,25.28
2022-10-17T11:44:39.044Z,24.90
2022-10-17T11:47:34.908Z,23.63
2022-10-17T11:54:05.014Z,19.97
2022-10-17T11:56:55.063Z,19.88
2022-10-17T12:00:11.907Z,19.40
2022-10-17T12:03:27.132Z,18.88
2022-10-17T12:06:20.357Z,18.89
2022-10-17T12:09:09.941Z,18.76
2022-10-17T12:12:05.920Z,18.42
2022-10-17T12:14:57.886Z,18.32
2022-10-17T12:17:47.909Z,18.36
2022-10-17T12:20:34.861Z,18.19
2022-10-17T12:23:15.453Z,18.31
2022-10-17T12:26:11.891Z,18.08
2022-10-17T12:28:52.859Z,18.11
2022-10-17T12:31:40.837Z,18.14
2022-10-17T12:34:31.123Z,18.12
2022-10-17T12:37:11.079Z,18.04
2022-10-17T12:39:57.933Z,18.18
2022-10-17T12:42:46.873Z,17.94
2022-10-17T12:45:53.330Z,17.93
2022-10-17T12:48:51.839Z,17.85
2022-10-17T12:52:16.961Z,17.99
2022-10-17T12:55:19.925Z,17.92
2022-10-17T12:58:08.412Z,17.80
2022-10-17T13:01:18.843Z,17.77
2022-10-17T13:03:56.486Z,17.49
2022-10-17T13:06:46.845Z,17.49
2022-10-17T13:09:35.836Z,17.62
2022-10-17T13:12:28.658Z,17.69
2022-10-17T13:15:24.862Z,17.70
2022-10-17T13:18:13.821Z,17.64
2022-10-17T13:21:12.851Z,17.45
2022-10-17T13:23:54.513Z,17.41
2022-10-17T13:26:40.868Z,17.32
2022-10-17T13:29:31.819Z,17.23
2022-10-17T13:32:18.761Z,17.23
2022-10-17T13:35:36.559Z,17.14
2022-10-17T13:38:27.978Z,17.06
2022-10-17T13:41:34.771Z,17.11
2022-10-17T13:44:34.755Z,17.11
2022-10-17T13:47:28.898Z,17.13
2022-10-17T13:50:44.125Z,17.16
2022-10-17T13:53:43.899Z,17.04
2022-10-17T13:56:32.767Z,17.01
2022-10-17T13:59:38.789Z,16.95
2022-10-17T14:02:43.757Z,16.93
2022-10-17T14:05:32.803Z,16.87
2022-10-17T14:08:22.902Z,16.81
2022-10-17T14:11:09.761Z,16.82
2022-10-17T14:13:52.774Z,16.74
2022-10-17T14:16:55.780Z,16.65
2022-10-17T14:19:38.054Z,16.63
2022-10-17T14:23:04.410Z,16.60
2022-10-17T14:26:03.788Z,16.48
2022-10-17T14:28:47.166Z,16.46
2022-10-17T14:31:45.792Z,16.48
2022-10-17T14:34:31.259Z,16.43
2022-10-17T14:37:54.759Z,16.41
2022-10-17T14:40:41.727Z,16.35
2022-10-17T14:43:26.822Z,16.26
2022-10-17T14:46:13.738Z,16.28
2022-10-17T14:48:59.808Z,16.11
2022-10-17T14:51:56.917Z,16.06
2022-10-17T14:54:53.684Z,15.94
2022-10-17T14:57:34.463Z,15.89
2022-10-17T15:00:20.703Z,15.86
2022-10-17T15:03:07.738Z,15.75
2022-10-17T15:05:54.705Z,15.72
2022-10-17T15:08:35.112Z,15.65
2022-10-17T15:27:37.732Z,14.74
2022-10-17T15:30:32.687Z,14.83
2022-10-17T15:33:19.688Z,14.86
2022-10-17T15:36:06.823Z,14.87
2022-10-17T15:38:46.743Z,14.91
2022-10-17T15:41:35.704Z,14.86
2022-10-17T15:44:15.836Z,14.86
2022-10-17T15:47:03.707Z,14.78
2022-10-17T15:49:43.766Z,14.82
2022-10-17T15:52:30.710Z,14.65
2022-10-17T15:55:17.664Z,14.66
2022-10-17T15:57:58.058Z,14.67
2022-10-17T16:00:44.714Z,14.58
2022-10-17T16:03:31.669Z,14.54
2022-10-17T16:06:14.146Z,14.50
2022-10-17T16:09:00.680Z,14.45
2022-10-17T16:11:53.677Z,14.28
2022-10-17T16:14:34.043Z,14.31
2022-10-17T16:17:22.684Z,14.29
2022-10-17T16:20:03.215Z,14.20
2022-10-17T16:22:49.684Z,14.18
2022-10-17T16:25:45.627Z,14.14
2022-10-17T16:28:32.698Z,14.07
2022-10-17T16:31:42.664Z,14.12
2022-10-17T16:34:29.640Z,14.00
2022-10-17T16:37:09.827Z,14.03
2022-10-17T16:39:58.591Z,13.99
2022-10-17T16:42:38.761Z,13.96
2022-10-17T16:45:28.646Z,13.96
2022-10-17T16:48:08.710Z,13.93
2022-10-17T16:51:02.613Z,13.95
2022-10-17T16:53:45.892Z,13.90
2022-10-17T16:56:38.631Z,13.85
2022-10-17T16:59:19.045Z,13.80
2022-10-17T17:02:05.591Z,13.81
2022-10-17T17:04:45.962Z,13.79
2022-10-17T17:07:26.716Z,13.70
2022-10-17T17:10:13.592Z,13.66
2022-10-17T17:12:53.961Z,13.57
2022-10-17T17:15:40.631Z,13.47
2022-10-17T17:18:27.596Z,13.46
2022-10-17T17:21:09.679Z,13.43
2022-10-17T17:23:56.556Z,13.45
2022-10-17T17:26:43.693Z,13.45
2022-10-17T17:29:23.564Z,13.48
2022-10-17T17:32:04.108Z,13.42
2022-10-17T17:34:51.562Z,13.44
2022-10-17T17:37:38.562Z,13.43
2022-10-17T17:40:18.702Z,13.43
2022-10-17T17:45:47.711Z,13.30
2022-10-17T17:48:34.526Z,13.35
2022-10-17T17:51:28.487Z,13.27
2022-10-17T17:54:17.551Z,13.29
2022-10-17T17:57:04.551Z,13.28
2022-10-17T17:59:45.666Z,13.27
2022-10-17T18:02:32.736Z,13.30
2022-10-17T18:05:13.644Z,13.26
2022-10-17T18:08:00.550Z,13.19
2022-10-17T18:10:40.599Z,13.21
2022-10-17T18:13:27.559Z,13.16
2022-10-17T18:16:17.456Z,13.12
2022-10-17T18:19:05.952Z,13.06
2022-10-17T18:21:53.514Z,12.99
2022-10-17T18:24:33.905Z,13.03
2022-10-17T18:27:22.536Z,12.97
2022-10-17T18:30:04.227Z,12.92
2022-10-17T18:32:50.517Z,12.88
2022-10-17T18:35:37.483Z,12.86
2022-10-17T18:38:17.608Z,12.79
2022-10-17T18:41:19.477Z,12.73
2022-10-17T18:44:09.456Z,12.70
2022-10-17T18:46:58.644Z,12.62
2022-10-17T18:49:49.468Z,12.62
2022-10-17T18:52:36.549Z,12.53
2022-10-17T18:55:24.482Z,12.45
2022-10-17T18:58:11.503Z,12.45
2022-10-17T19:00:59.454Z,12.34
2022-10-17T19:03:39.813Z,12.27
2022-10-17T19:06:29.479Z,12.10
2022-10-17T19:09:18.438Z,11.95
2022-10-17T19:11:58.635Z,11.90
2022-10-17T19:14:45.442Z,11.80
2022-10-17T19:17:32.792Z,11.76
2022-10-17T19:20:12.780Z,11.73
2022-10-17T19:22:59.417Z,11.67
2022-10-17T19:25:46.406Z,11.71
2022-10-17T19:28:26.745Z,11.62
2022-10-17T19:31:16.906Z,11.61
2022-10-17T19:34:04.453Z,11.51
2022-10-17T19:36:45.241Z,11.54
2022-10-17T19:39:34.420Z,11.47
2022-10-17T19:42:14.865Z,11.48
2022-10-17T19:45:01.410Z,11.49
2022-10-17T19:47:41.805Z,11.47
2022-10-17T19:50:28.484Z,11.46
2022-10-17T19:53:08.762Z,11.42
2022-10-17T19:55:55.415Z,11.37
2022-10-17T19:58:43.743Z,11.30
2022-10-17T20:01:33.439Z,11.31
2022-10-17T20:04:20.386Z,11.28
2022-10-17T20:07:00.524Z,11.33
2022-10-17T20:09:47.418Z,11.30
2022-10-17T20:12:27.701Z,11.23
2022-10-17T20:15:14.341Z,11.18
2022-10-17T20:17:54.446Z,11.13
2022-10-17T20:20:42.350Z,11.10
2022-10-17T20:23:22.561Z,11.03
2022-10-17T20:26:37.084Z,10.98
2022-10-17T20:29:15.517Z,10.92
2022-10-17T20:32:03.335Z,10.94
2022-10-17T20:34:50.361Z,10.88
2022-10-17T20:37:42.691Z,10.86
2022-10-17T20:40:34.719Z,10.84
2022-10-17T20:43:17.377Z,10.83
2022-10-17T20:46:04.614Z,10.86
2022-10-17T20:48:56.349Z,10.80
2022-10-17T20:51:50.351Z,10.83
2022-10-17T20:54:30.729Z,10.80
2022-10-17T20:57:18.294Z,10.78
2022-10-17T21:00:05.314Z,10.78
2022-10-17T21:02:45.510Z,10.75
2022-10-17T21:05:32.323Z,10.72
2022-10-17T21:08:13.420Z,10.71
2022-10-17T21:11:00.297Z,10.68
2022-10-17T21:13:47.307Z,10.69
2022-10-17T21:16:35.313Z,10.64
2022-10-17T21:19:17.436Z,10.63
2022-10-17T21:22:04.297Z,10.57
2022-10-17T21:24:51.299Z,10.56
2022-10-17T21:27:31.682Z,10.59
2022-10-17T21:30:19.282Z,10.55
2022-10-17T21:32:59.698Z,10.51
2022-10-17T21:35:46.300Z,10.51
2022-10-17T21:38:26.627Z,10.49
2022-10-17T21:41:13.275Z,10.47
2022-10-17T21:44:26.974Z,10.39
2022-10-17T21:47:13.289Z,10.36
2022-10-17T21:50:00.286Z,10.30
2022-10-17T21:52:40.336Z,10.27
2022-10-17T21:55:27.272Z,10.23
2022-10-17T21:58:07.369Z,10.18
2022-10-17T22:00:54.236Z,10.12
2022-10-17T22:03:44.135Z,10.09
2022-10-17T22:06:40.632Z,10.08
2022-10-17T22:09:23.313Z,10.04
2022-10-17T22:12:10.214Z,10.00
2022-10-17T22:14:57.234Z,10.06
2022-10-17T22:17:37.557Z,10.01
2022-10-17T22:20:24.190Z,10.04
2022-10-17T22:23:04.606Z,10.07
2022-10-17T22:25:51.206Z,10.00
2022-10-17T22:28:38.242Z,10.00
2022-10-17T22:31:18.277Z,9.97
2022-10-17T22:34:05.600Z,9.98
2022-10-17T22:36:45.387Z,9.92
2022-10-17T22:39:32.170Z,9.90
2022-10-17T22:42:12.441Z,9.84
2022-10-17T22:44:59.160Z,9.86
2022-10-17T22:47:39.265Z,9.85
2022-10-17T22:50:28.246Z,9.88
2022-10-17T22:53:08.349Z,9.88
2022-10-17T22:56:03.160Z,9.89
2022-10-17T22:58:43.279Z,9.93
2022-10-17T23:01:31.179Z,9.97
2022-10-17T23:04:11.219Z,10.02
2022-10-17T23:06:58.150Z,10.07
2022-10-17T23:09:38.289Z,10.06
2022-10-17T23:12:25.144Z,10.18
2022-10-17T23:15:05.231Z,10.13
2022-10-17T23:17:52.127Z,10.12
2022-10-17T23:20:32.214Z,10.14
2022-10-17T23:23:19.147Z,10.18
2022-10-17T23:25:59.218Z,10.22
2022-10-17T23:28:47.191Z,10.19
2022-10-17T23:31:28.238Z,10.20
2022-10-17T23:34:15.097Z,10.21
2022-10-17T23:36:55.235Z,10.22
2022-10-17T23:39:42.115Z,10.24
2022-10-17T23:42:29.122Z,10.30
2022-10-17T23:45:10.002Z,10.31
2022-10-17T23:47:57.138Z,10.33
2022-10-17T23:50:37.490Z,10.36
2022-10-17T23:53:24.120Z,10.34
2022-10-17T23:56:12.088Z,10.30
2022-10-17T23:58:52.501Z,10.35
